Time;durP1;ratioP1;P1;durP2;ratioP2;P2;SDS_P1;SDS_P2;PMS_P1;PMS_P2;Temp;Humidity;BMP_temperature;BMP_pressure;BME280_temperature;BME280_humidity;BME280_pressure;Samples;Min_cycle;Max_cycle;Signal;HPM_P1;HPM_P2
2022/07/17 00:00:00;;;;;;;3.60;0.60;;;12.60;99.90;;;;;;4916925;29;20429;-82
2022/07/17 00:02:26;;;;;;;1.30;0.60;;;12.60;99.90;;;;;;4917215;29;20447;-82
2022/07/17 00:04:51;;;;;;;1.33;0.20;;;12.50;99.90;;;;;;4917152;29;20429;-82
2022/07/17 00:07:17;;;;;;;1.77;0.20;;;12.50;99.90;;;;;;4917195;29;20237;-82
2022/07/17 00:09:43;;;;;;;2.00;0.30;;;12.40;99.90;;;;;;4916756;29;20212;-82
2022/07/17 00:12:08;;;;;;;0.50;0.20;;;12.30;99.90;;;;;;4917059;29;20268;-82
2022/07/17 00:14:34;;;;;;;1.30;0.20;;;12.20;99.90;;;;;;4916553;29;20184;-81
2022/07/17 00:16:59;;;;;;;0.70;0.30;;;12.20;99.90;;;;;;4917094;29;20630;-82
2022/07/17 00:19:25;;;;;;;1.90;0.20;;;12.20;99.90;;;;;;4917044;29;20177;-82
2022/07/17 00:21:51;;;;;;;1.73;0.47;;;12.20;99.90;;;;;;4916927;29;20176;-82
2022/07/17 00:24:19;;;;;;;1.07;0.30;;;12.20;99.90;;;;;;4931387;29;20499;-82
2022/07/17 00:26:49;;;;;;;0.87;0.30;;;12.10;99.90;;;;;;4916991;29;20184;-81
2022/07/17 00:29:15;;;;;;;0.60;0.20;;;12.10;99.90;;;;;;4916716;29;20792;-82
2022/07/17 00:31:41;;;;;;;1.40;0.40;;;12.00;99.90;;;;;;4931697;29;20436;-82
2022/07/17 00:34:07;;;;;;;0.57;0.23;;;12.00;99.90;;;;;;4923064;29;20429;-82
2022/07/17 00:36:33;;;;;;;0.83;0.30;;;12.00;99.90;;;;;;4923498;29;20229;-82
2022/07/17 00:38:58;;;;;;;3.50;0.20;;;12.00;99.90;;;;;;4917095;29;20188;-82
2022/07/17 00:41:24;;;;;;;1.80;0.40;;;12.00;99.90;;;;;;4917065;29;20951;-82
2022/07/17 00:43:49;;;;;;;1.23;0.37;;;12.00;99.90;;;;;;4916542;29;20224;-82
2022/07/17 00:46:15;;;;;;;0.50;0.27;;;12.00;99.90;;;;;;4915533;29;20255;-82
2022/07/17 00:48:40;;;;;;;1.93;0.20;;;12.00;99.90;;;;;;4916837;29;20172;-82
2022/07/17 00:51:07;;;;;;;1.37;0.40;;;11.90;99.90;;;;;;4916548;29;20672;-82
2022/07/17 00:53:35;;;;;;;0.63;0.20;;;11.80;99.90;;;;;;4915526;29;20270;-82
2022/07/17 00:56:03;;;;;;;2.00;0.60;;;11.90;99.90;;;;;;4916642;29;20796;-82
2022/07/17 00:58:28;;;;;;;1.03;0.47;;;11.90;99.90;;;;;;4916830;29;20507;-82
2022/07/17 01:00:57;;;;;;;1.33;0.47;;;11.80;99.90;;;;;;4930868;29;21039;-81
2022/07/17 01:03:25;;;;;;;0.87;0.27;;;11.90;99.90;;;;;;4916494;29;20258;-81
2022/07/17 01:05:50;;;;;;;0.90;0.40;;;11.80;99.90;;;;;;4916560;29;20427;-82
2022/07/17 01:08:16;;;;;;;0.60;0.40;;;11.80;99.90;;;;;;4919345;29;20859;-82
2022/07/17 01:10:42;;;;;;;1.60;0.33;;;11.70;99.90;;;;;;4934573;29;20241;-82
2022/07/17 01:13:08;;;;;;;1.13;0.20;;;11.70;99.90;;;;;;4920335;29;20213;-81
2022/07/17 01:15:39;;;;;;;2.10;0.30;;;11.60;99.90;;;;;;4919709;29;20234;-82
2022/07/17 01:18:07;;;;;;;1.93;0.50;;;11.60;99.90;;;;;;4920152;29;20172;-82
2022/07/17 01:20:33;;;;;;;1.47;0.30;;;11.50;99.90;;;;;;4920109;29;20537;-82
2022/07/17 01:22:58;;;;;;;3.17;0.40;;;11.50;99.90;;;;;;4920025;29;20500;-82
2022/07/17 01:25:24;;;;;;;3.43;0.57;;;11.50;99.90;;;;;;4920100;29;20424;-82
2022/07/17 01:27:50;;;;;;;2.77;0.43;;;11.50;99.90;;;;;;4919788;29;20183;-82
2022/07/17 01:30:16;;;;;;;1.17;0.30;;;11.50;99.90;;;;;;4919545;29;20635;-82
2022/07/17 01:32:42;;;;;;;1.63;0.53;;;11.40;99.90;;;;;;4919890;29;20458;-82
2022/07/17 01:35:10;;;;;;;1.90;0.30;;;11.30;99.90;;;;;;4918703;29;20191;-82
2022/07/17 01:37:37;;;;;;;0.90;0.20;;;11.20;99.90;;;;;;4919682;29;20629;-81
2022/07/17 01:40:03;;;;;;;2.03;0.70;;;11.10;99.90;;;;;;4919694;29;20430;-81
2022/07/17 01:42:28;;;;;;;0.60;0.20;;;11.10;99.90;;;;;;4919650;29;20487;-81
2022/07/17 01:44:55;;;;;;;1.73;0.60;;;11.00;99.90;;;;;;4919206;29;20915;-81
2022/07/17 01:47:21;;;;;;;0.77;0.30;;;11.00;99.90;;;;;;4919678;29;20623;-81
2022/07/17 01:49:57;;;;;;;2.20;0.50;;;11.00;99.90;;;;;;4919482;29;20478;-81
2022/07/17 01:52:24;;;;;;;1.60;0.37;;;11.00;99.90;;;;;;4919623;29;20506;-81
2022/07/17 01:54:51;;;;;;;2.40;0.30;;;11.00;99.90;;;;;;4919315;29;20431;-82
2022/07/17 01:57:17;;;;;;;0.70;0.40;;;11.00;99.90;;;;;;4919578;29;20421;-81
2022/07/17 01:59:43;;;;;;;2.43;0.47;;;10.90;99.90;;;;;;4933661;29;20431;-81
2022/07/17 02:02:09;;;;;;;1.63;0.50;;;10.80;99.90;;;;;;4919415;29;20629;-81
2022/07/17 02:04:36;;;;;;;1.07;0.40;;;10.80;99.90;;;;;;4919190;29;20640;-81
2022/07/17 02:07:02;;;;;;;3.80;0.87;;;10.90;99.90;;;;;;4919309;29;20460;-81
2022/07/17 02:09:28;;;;;;;1.23;0.30;;;10.90;99.90;;;;;;4919167;29;20468;-81
2022/07/17 02:11:53;;;;;;;0.80;0.37;;;10.80;99.90;;;;;;4918984;29;20470;-81
2022/07/17 02:14:19;;;;;;;1.43;0.20;;;10.80;99.90;;;;;;4918926;29;20178;-81
2022/07/17 02:16:46;;;;;;;1.73;0.60;;;10.90;99.90;;;;;;4919025;29;20213;-81
2022/07/17 02:19:12;;;;;;;2.13;0.20;;;11.00;99.90;;;;;;4918192;29;20419;-81
2022/07/17 02:21:38;;;;;;;0.90;0.40;;;11.10;99.90;;;;;;4918994;29;20427;-81
2022/07/17 02:24:04;;;;;;;1.90;0.37;;;11.10;99.90;;;;;;4919049;29;20600;-80
2022/07/17 02:26:29;;;;;;;1.00;0.23;;;11.20;99.90;;;;;;4933179;29;20451;-81
2022/07/17 02:28:55;;;;;;;2.00;0.67;;;11.40;99.90;;;;;;4916464;29;20172;-81
2022/07/17 02:31:21;;;;;;;1.07;0.37;;;11.50;99.90;;;;;;4918923;29;20306;-81
2022/07/17 02:33:46;;;;;;;0.70;0.23;;;11.50;99.90;;;;;;4918920;29;20184;-81
2022/07/17 02:36:12;;;;;;;0.63;0.20;;;11.60;99.90;;;;;;4918953;29;20463;-81
2022/07/17 02:38:37;;;;;;;0.50;0.23;;;11.60;99.90;;;;;;4919002;29;20645;-81
2022/07/17 02:41:03;;;;;;;0.30;0.20;;;11.70;99.90;;;;;;4933509;29;20186;-81
2022/07/17 02:43:29;;;;;;;1.30;0.30;;;11.80;99.90;;;;;;4918568;29;20180;-81
2022/07/17 02:45:54;;;;;;;1.93;0.53;;;11.80;99.90;;;;;;4918850;29;20263;-81
2022/07/17 02:48:20;;;;;;;4.00;0.20;;;11.80;99.90;;;;;;4918844;29;20206;-81
2022/07/17 02:50:46;;;;;;;1.23;0.37;;;11.90;99.90;;;;;;4918682;29;20222;-81
2022/07/17 02:53:11;;;;;;;1.43;0.20;;;11.90;99.90;;;;;;4918654;29;20178;-81
2022/07/17 02:55:37;;;;;;;1.40;0.30;;;11.90;99.90;;;;;;4918710;29;20188;-81
2022/07/17 02:58:02;;;;;;;1.77;0.30;;;12.00;99.90;;;;;;4918622;29;20175;-81
2022/07/17 03:00:28;;;;;;;1.00;0.33;;;12.00;99.90;;;;;;4918209;29;20195;-81
2022/07/17 03:02:55;;;;;;;3.87;0.77;;;12.00;99.90;;;;;;4918641;29;20421;-81
2022/07/17 03:05:20;;;;;;;2.43;0.43;;;12.10;99.90;;;;;;4918454;29;20193;-81
2022/07/17 03:07:46;;;;;;;2.90;0.50;;;12.10;99.90;;;;;;4918403;29;20880;-81
2022/07/17 03:10:12;;;;;;;1.07;0.30;;;12.10;99.90;;;;;;4918195;29;20272;-81
2022/07/17 03:12:37;;;;;;;1.50;0.40;;;12.10;99.90;;;;;;4918374;29;20193;-81
2022/07/17 03:15:04;;;;;;;1.07;0.73;;;12.10;99.90;;;;;;4917969;29;20189;-81
2022/07/17 03:17:30;;;;;;;1.30;0.30;;;12.10;99.90;;;;;;4932890;29;20538;-81
2022/07/17 03:19:56;;;;;;;1.40;0.60;;;12.10;99.90;;;;;;4918214;29;20425;-81
2022/07/17 03:22:21;;;;;;;0.83;0.37;;;12.20;99.90;;;;;;4918191;29;20184;-81
2022/07/17 03:24:47;;;;;;;2.03;0.30;;;12.20;99.90;;;;;;4918085;29;20316;-81
2022/07/17 03:27:12;;;;;;;2.93;0.27;;;12.30;99.90;;;;;;4918129;29;20224;-81
2022/07/17 03:29:38;;;;;;;2.43;0.67;;;12.30;99.90;;;;;;4917555;29;20213;-81
2022/07/17 03:32:04;;;;;;;0.83;0.20;;;12.30;99.90;;;;;;4932587;29;20189;-81
2022/07/17 03:34:30;;;;;;;1.87;0.83;;;12.30;99.90;;;;;;4917970;29;20193;-81
2022/07/17 03:36:55;;;;;;;3.17;0.40;;;12.40;99.90;;;;;;4917867;29;20814;-81
2022/07/17 03:39:21;;;;;;;0.90;0.40;;;12.30;99.90;;;;;;4917873;29;20180;-81
2022/07/17 03:41:46;;;;;;;1.17;0.40;;;12.40;99.90;;;;;;4917838;29;20192;-81
2022/07/17 03:44:11;;;;;;;0.67;0.40;;;12.40;99.90;;;;;;4917454;29;20586;-81
2022/07/17 03:46:37;;;;;;;1.90;0.30;;;12.50;99.90;;;;;;4917758;29;20241;-81
2022/07/17 03:49:02;;;;;;;3.13;0.80;;;12.50;99.90;;;;;;4917693;29;20263;-81
2022/07/17 03:51:28;;;;;;;2.77;0.83;;;12.50;99.90;;;;;;4917586;29;20217;-81
2022/07/17 03:53:53;;;;;;;1.37;0.63;;;12.50;99.90;;;;;;4917588;29;20274;-81
2022/07/17 03:56:19;;;;;;;0.83;0.30;;;12.50;99.90;;;;;;4917593;29;20231;-81
2022/07/17 03:58:45;;;;;;;1.60;0.20;;;12.60;99.90;;;;;;4917211;29;20663;-81
2022/07/17 04:01:10;;;;;;;1.37;0.30;;;12.70;99.90;;;;;;4917526;29;20174;-81
2022/07/17 04:03:36;;;;;;;1.47;0.37;;;12.80;99.90;;;;;;4917479;29;20186;-82
2022/07/17 04:06:01;;;;;;;1.37;0.40;;;12.80;99.90;;;;;;4917462;29;20177;-81
2022/07/17 04:08:27;;;;;;;1.00;0.60;;;12.80;99.90;;;;;;4917406;29;20269;-81
2022/07/17 04:10:52;;;;;;;0.70;0.20;;;12.90;99.90;;;;;;4917058;29;20699;-81
2022/07/17 04:13:18;;;;;;;2.67;0.40;;;12.90;99.90;;;;;;4916983;29;20173;-81
2022/07/17 04:15:49;;;;;;;2.40;0.30;;;12.90;99.90;;;;;;4917302;29;20658;-81
2022/07/17 04:18:16;;;;;;;0.47;0.23;;;13.00;99.90;;;;;;4917321;29;20175;-81
2022/07/17 04:20:42;;;;;;;2.00;0.63;;;13.10;99.90;;;;;;4917217;29;20437;-81
2022/07/17 04:23:07;;;;;;;1.37;0.20;;;;;;;;;;4931761;29;20445;-81
2022/07/17 04:25:33;;;;;;;1.03;0.37;;;13.10;99.90;;;;;;4917219;29;20206;-81
2022/07/17 04:27:58;;;;;;;1.47;0.37;;;13.20;99.90;;;;;;4917193;29;20454;-81
2022/07/17 04:30:24;;;;;;;1.57;0.30;;;13.20;99.90;;;;;;4916722;29;20644;-81
2022/07/17 04:32:49;;;;;;;1.70;0.70;;;13.20;99.90;;;;;;4917142;29;20226;-81
2022/07/17 04:35:15;;;;;;;1.43;0.50;;;13.30;99.90;;;;;;4917001;29;20179;-81
2022/07/17 04:37:40;;;;;;;2.03;0.30;;;13.30;99.90;;;;;;4917025;29;20181;-81
2022/07/17 04:40:06;;;;;;;1.63;0.20;;;13.40;99.90;;;;;;4916969;29;20186;-81
2022/07/17 04:42:32;;;;;;;2.30;0.53;;;13.50;99.90;;;;;;4916480;29;20186;-81
2022/07/17 04:44:57;;;;;;;1.53;0.30;;;13.50;99.90;;;;;;4916562;29;20444;-81
2022/07/17 04:47:23;;;;;;;2.03;0.57;;;13.60;99.90;;;;;;4916946;29;20191;-82
2022/07/17 04:49:48;;;;;;;1.37;0.40;;;13.50;99.90;;;;;;4916863;29;20216;-81
2022/07/17 04:52:14;;;;;;;0.50;0.30;;;13.60;99.90;;;;;;4916834;29;20229;-81
2022/07/17 04:54:39;;;;;;;1.50;0.20;;;13.70;99.90;;;;;;4916802;29;20256;-81
2022/07/17 04:57:05;;;;;;;0.80;0.30;;;13.70;99.90;;;;;;4916895;29;20225;-81
2022/07/17 04:59:30;;;;;;;2.00;0.20;;;13.80;99.90;;;;;;4916451;29;20179;-81
2022/07/17 05:01:56;;;;;;;1.23;0.20;;;14.00;99.90;;;;;;4916928;29;20181;-81
2022/07/17 05:04:21;;;;;;;1.47;0.50;;;14.10;99.90;;;;;;4916787;29;20178;-81
2022/07/17 05:06:47;;;;;;;2.10;0.30;;;14.00;99.90;;;;;;4916780;29;20185;-81
2022/07/17 05:09:12;;;;;;;3.10;0.43;;;14.10;99.90;;;;;;4916612;29;20234;-82
2022/07/17 05:11:38;;;;;;;0.83;0.30;;;14.20;99.90;;;;;;4916575;29;20235;-81
2022/07/17 05:14:03;;;;;;;1.50;0.30;;;14.30;99.90;;;;;;4916388;29;20167;-82
2022/07/17 05:16:29;;;;;;;0.60;0.30;;;14.40;99.90;;;;;;4916626;29;20675;-81
2022/07/17 05:18:54;;;;;;;0.77;0.20;;;14.50;99.90;;;;;;4916628;29;20258;-82
2022/07/17 05:21:20;;;;;;;2.40;0.20;;;14.50;99.90;;;;;;4916657;29;20707;-82
2022/07/17 05:23:46;;;;;;;1.57;0.20;;;14.60;99.90;;;;;;4916787;29;20554;-81
2022/07/17 05:26:11;;;;;;;0.83;0.30;;;14.60;99.90;;;;;;4916575;29;20208;-81
2022/07/17 05:28:37;;;;;;;0.90;0.20;;;14.50;99.90;;;;;;4930784;29;20233;-81
2022/07/17 05:31:02;;;;;;;1.00;0.20;;;14.60;99.90;;;;;;4916406;29;20271;-81
2022/07/17 05:33:28;;;;;;;0.77;0.40;;;14.70;99.90;;;;;;4916541;29;20179;-82
2022/07/17 05:35:53;;;;;;;1.57;0.47;;;14.70;99.90;;;;;;4931134;29;20174;-82
2022/07/17 05:38:19;;;;;;;1.13;0.30;;;14.70;93.80;;;;;;4916587;29;20175;-82
2022/07/17 05:40:44;;;;;;;1.20;0.30;;;14.70;91.70;;;;;;4916424;29;20658;-82
2022/07/17 05:43:10;;;;;;;1.63;0.30;;;14.60;50.90;;;;;;4916129;29;20535;-82
2022/07/17 05:45:35;;;;;;;2.37;0.30;;;14.60;11.30;;;;;;4916422;29;20179;-82
2022/07/17 05:48:01;;;;;;;1.53;0.20;;;14.70;59.20;;;;;;4915267;29;20651;-82
2022/07/17 05:50:26;;;;;;;2.23;0.20;;;14.70;34.10;;;;;;4916281;29;20219;-81
2022/07/17 05:52:52;;;;;;;0.60;0.30;;;14.70;24.50;;;;;;4916564;29;20177;-82
2022/07/17 05:55:18;;;;;;;1.80;0.30;;;14.70;29.20;;;;;;4918905;29;20172;-81
2022/07/17 05:57:43;;;;;;;1.13;0.30;;;14.80;23.30;;;;;;4919702;29;20203;-82
2022/07/17 06:00:10;;;;;;;0.90;0.30;;;14.90;1.00;;;;;;4919315;29;20949;-82
2022/07/17 06:02:35;;;;;;;0.50;0.20;;;15.00;1.00;;;;;;4919451;29;20181;-82
2022/07/17 06:05:01;;;;;;;1.93;0.93;;;15.00;1.00;;;;;;4919577;29;20780;-82
2022/07/17 06:07:27;;;;;;;0.50;0.30;;;15.00;1.00;;;;;;4919463;29;20254;-81
2022/07/17 06:09:52;;;;;;;0.50;0.20;;;15.00;1.00;;;;;;4919282;29;20239;-81
2022/07/17 06:12:17;;;;;;;1.73;0.40;;;15.00;1.00;;;;;;4919452;29;20644;-82
2022/07/17 06:14:43;;;;;;;0.60;0.20;;;15.10;1.00;;;;;;4919096;29;20172;-82
2022/07/17 06:17:09;;;;;;;0.70;0.20;;;15.30;1.00;;;;;;4919382;29;20187;-82
2022/07/17 06:19:34;;;;;;;0.73;0.10;;;15.70;1.00;;;;;;4919362;29;20240;-82
2022/07/17 06:22:00;;;;;;;0.87;0.30;;;16.00;1.00;;;;;;4933905;29;20176;-82
2022/07/17 06:24:25;;;;;;;2.93;0.37;;;16.20;99.90;;;;;;4919382;29;20187;-82
2022/07/17 06:26:51;;;;;;;1.70;0.57;;;16.50;1.00;;;;;;4919235;29;20181;-82
2022/07/17 06:29:16;;;;;;;1.13;0.30;;;16.80;1.00;;;;;;4918721;29;20175;-82
2022/07/17 06:31:42;;;;;;;1.33;0.20;;;16.80;1.00;;;;;;4919131;29;20214;-82
2022/07/17 06:34:07;;;;;;;2.00;0.40;;;16.50;99.90;;;;;;4919099;29;20273;-82
2022/07/17 06:36:33;;;;;;;1.50;0.60;;;16.30;65.50;;;;;;4933730;29;20186;-82
2022/07/17 06:38:58;;;;;;;1.33;0.30;;;16.10;99.90;;;;;;4919031;29;20174;-82
2022/07/17 06:41:23;;;;;;;0.63;0.20;;;16.10;99.90;;;;;;4918986;29;20189;-82
2022/07/17 06:43:49;;;;;;;1.53;0.43;;;16.10;1.00;;;;;;4918531;29;20583;-82
2022/07/17 06:46:15;;;;;;;2.10;0.20;;;16.20;99.90;;;;;;4918872;29;20197;-82
2022/07/17 06:48:40;;;;;;;1.80;0.50;;;16.40;99.90;;;;;;4918840;29;20190;-82
2022/07/17 06:51:06;;;;;;;0.60;0.30;;;16.60;1.00;;;;;;4918668;29;20837;-82
2022/07/17 06:53:31;;;;;;;2.00;0.43;;;16.90;99.90;;;;;;4918758;29;20199;-82
2022/07/17 06:55:57;;;;;;;2.00;0.60;;;17.00;1.00;;;;;;4918802;29;20696;-82
2022/07/17 06:58:22;;;;;;;1.97;0.63;;;16.90;99.90;;;;;;4918295;29;20207;-83
2022/07/17 07:00:48;;;;;;;1.10;0.20;;;16.70;1.00;;;;;;4918573;29;20184;-82
2022/07/17 07:03:13;;;;;;;0.90;0.20;;;16.70;1.00;;;;;;4918610;29;20181;-82
2022/07/17 07:05:39;;;;;;;2.77;0.20;;;16.80;1.00;;;;;;4918133;29;20167;-82
2022/07/17 07:08:04;;;;;;;0.50;0.20;;;16.90;1.00;;;;;;4918503;29;20234;-82
2022/07/17 07:10:30;;;;;;;0.67;0.30;;;17.50;99.90;;;;;;4918176;29;20330;-82
2022/07/17 07:12:56;;;;;;;1.30;0.20;;;18.00;99.90;;;;;;4918023;29;20199;-82
2022/07/17 07:15:23;;;;;;;1.53;0.20;;;18.10;99.90;;;;;;4918336;29;20659;-82
2022/07/17 07:17:48;;;;;;;1.37;0.30;;;17.90;99.90;;;;;;4918279;29;20526;-82
2022/07/17 07:20:14;;;;;;;1.30;0.27;;;17.50;1.00;;;;;;4918230;29;20513;-82
2022/07/17 07:22:39;;;;;;;1.00;0.20;;;17.80;1.00;;;;;;4918193;29;20180;-82
2022/07/17 07:25:05;;;;;;;0.30;0.20;;;18.10;1.00;;;;;;4918143;29;20195;-82
2022/07/17 07:27:31;;;;;;;1.47;0.23;;;21.60;99.90;;;;;;4918213;29;20183;-83
2022/07/17 07:29:57;;;;;;;1.43;0.23;;;21.30;99.90;;;;;;4917675;29;20802;-82
2022/07/17 07:32:22;;;;;;;0.70;0.20;;;21.60;99.90;;;;;;4915225;29;20189;-82
2022/07/17 07:34:48;;;;;;;0.70;0.40;;;22.60;99.90;;;;;;4925975;29;20205;-82
2022/07/17 07:37:15;;;;;;;1.00;0.30;;;23.00;46.20;;;;;;4917729;29;20626;-83
2022/07/17 07:39:41;;;;;;;2.30;0.30;;;23.50;33.50;;;;;;4917665;29;20178;-83
2022/07/17 07:42:07;;;;;;;0.50;0.20;;;23.70;29.20;;;;;;4917649;29;20429;-84
2022/07/17 07:44:32;;;;;;;0.40;0.20;;;23.30;29.30;;;;;;4917271;29;20182;-83
2022/07/17 07:46:58;;;;;;;0.93;0.23;;;23.20;18.30;;;;;;4917215;29;20522;-83
2022/07/17 07:49:24;;;;;;;0.77;0.37;;;23.10;23.20;;;;;;4917412;29;20219;-83
2022/07/17 07:51:49;;;;;;;0.60;0.20;;;23.50;27.40;;;;;;4917471;29;20919;-83
2022/07/17 07:54:15;;;;;;;2.00;0.40;;;22.10;33.00;;;;;;4917440;29;20174;-82
2022/07/17 07:56:40;;;;;;;2.20;0.30;;;20.60;99.90;;;;;;4931877;29;20314;-83
2022/07/17 07:59:06;;;;;;;0.60;0.37;;;20.30;99.90;;;;;;4916826;29;20182;-83
2022/07/17 08:01:31;;;;;;;1.97;0.63;;;20.10;99.90;;;;;;4917233;29;20207;-84
2022/07/17 08:03:57;;;;;;;0.90;0.30;;;20.00;99.90;;;;;;4917232;29;20649;-83
2022/07/17 08:06:22;;;;;;;2.20;0.20;;;19.90;99.90;;;;;;4917204;29;20653;-82
2022/07/17 08:08:48;;;;;;;1.20;0.20;;;20.90;99.90;;;;;;4917018;29;20193;-83
2022/07/17 08:11:14;;;;;;;0.63;0.20;;;20.70;99.90;;;;;;4916697;29;20240;-84
2022/07/17 08:13:40;;;;;;;1.23;0.30;;;20.30;99.90;;;;;;4916823;29;20196;-83
2022/07/17 08:16:06;;;;;;;0.40;0.20;;;19.30;99.90;;;;;;4916832;29;20424;-83
2022/07/17 08:18:32;;;;;;;1.20;0.20;;;21.60;99.90;;;;;;4916616;29;20428;-82
2022/07/17 08:20:57;;;;;;;0.80;0.30;;;22.30;99.90;;;;;;4917156;29;20170;-83
2022/07/17 08:23:23;;;;;;;1.07;0.20;;;21.30;99.90;;;;;;4912018;29;20274;-83
2022/07/17 08:25:48;;;;;;;0.77;0.20;;;20.80;99.90;;;;;;4897051;29;20183;-83
2022/07/17 08:28:14;;;;;;;1.63;0.43;;;21.10;99.90;;;;;;4897604;29;20714;-83
2022/07/17 08:30:40;;;;;;;0.73;0.20;;;20.60;99.90;;;;;;4898474;29;20214;-85
2022/07/17 08:33:08;;;;;;;0.97;0.80;;;20.40;99.90;;;;;;4906018;29;20418;-82
2022/07/17 08:35:34;;;;;;;2.83;0.53;;;19.90;99.90;;;;;;4906542;29;20187;-83
2022/07/17 08:38:00;;;;;;;0.77;0.37;;;19.50;99.90;;;;;;4904275;29;21354;-84
2022/07/17 08:40:28;;;;;;;0.80;0.40;;;22.00;99.90;;;;;;4906548;29;20433;-83
2022/07/17 08:42:55;;;;;;;1.30;0.40;;;23.70;50.80;;;;;;4906484;29;20770;-82
2022/07/17 08:45:22;;;;;;;1.47;0.20;;;23.40;46.70;;;;;;4905126;29;20427;-83
2022/07/17 08:47:50;;;;;;;1.17;0.20;;;23.00;31.40;;;;;;4906162;29;20897;-85
2022/07/17 08:50:31;;;;;;;1.77;0.20;;;22.00;63.80;;;;;;4906946;29;20482;-83
2022/07/17 08:52:58;;;;;;;1.63;0.50;;;22.90;47.20;;;;;;4907211;29;20419;-83
2022/07/17 08:55:24;;;;;;;0.90;0.20;;;22.10;31.20;;;;;;4906819;29;20470;-82
2022/07/17 08:57:49;;;;;;;0.90;0.33;;;21.00;62.20;;;;;;4904491;29;20428;-83
2022/07/17 09:00:18;;;;;;;1.67;0.30;;;22.40;82.70;;;;;;4905200;29;20185;-84
2022/07/17 09:03:01;;;;;;;0.80;0.20;;;24.50;23.30;;;;;;4907010;29;20214;-84
2022/07/17 09:05:47;;;;;;;1.33;0.23;;;25.70;11.10;;;;;;4912323;29;20418;-84
2022/07/17 09:08:20;;;;;;;1.43;0.20;;;25.00;1.00;;;;;;4906899;29;20415;-83
2022/07/17 09:10:48;;;;;;;0.50;0.20;;;22.70;1.00;;;;;;4906603;29;20832;-83
2022/07/17 09:13:28;;;;;;;0.53;0.40;;;21.50;8.00;;;;;;4906250;29;20478;-83
2022/07/17 09:16:06;;;;;;;0.90;0.30;;;23.30;30.20;;;;;;4906947;29;20472;-84
2022/07/17 09:18:41;;;;;;;1.70;0.43;;;25.50;4.80;;;;;;4906300;29;20447;-83
2022/07/17 09:21:07;;;;;;;1.03;0.50;;;23.80;1.00;;;;;;4902392;29;20431;-84
2022/07/17 09:23:34;;;;;;;2.30;0.20;;;22.10;4.70;;;;;;4907491;29;20490;-83
2022/07/17 09:26:00;;;;;;;2.80;0.50;;;21.20;28.30;;;;;;4905400;29;20186;-84
2022/07/17 09:28:25;;;;;;;1.00;0.50;;;20.70;99.90;;;;;;4907795;29;20921;-83
2022/07/17 09:30:54;;;;;;;0.80;0.20;;;23.00;53.70;;;;;;4908665;29;20215;-84
2022/07/17 09:33:23;;;;;;;0.80;0.20;;;22.80;25.00;;;;;;4909031;29;20175;-84
2022/07/17 09:35:55;;;;;;;1.20;0.37;;;21.80;33.30;;;;;;4910276;29;20439;-83
2022/07/17 09:38:47;;;;;;;0.93;0.33;;;23.00;39.60;;;;;;4909823;29;20488;-83
2022/07/17 09:41:15;;;;;;;0.83;0.30;;;25.10;6.90;;;;;;4911072;29;20424;-83
2022/07/17 09:43:57;;;;;;;1.00;0.40;;;23.80;1.00;;;;;;4908372;29;20410;-84
2022/07/17 09:46:30;;;;;;;1.40;0.40;;;24.90;1.00;;;;;;4910155;29;20446;-83
2022/07/17 09:48:58;;;;;;;0.60;0.20;;;25.60;1.00;;;;;;4910123;29;20457;-84
2022/07/17 09:51:32;;;;;;;1.63;0.20;;;23.60;1.00;;;;;;4909880;29;20474;-84
2022/07/17 09:54:01;;;;;;;0.70;0.20;;;22.30;1.00;;;;;;4910045;29;20426;-83
2022/07/17 09:56:30;;;;;;;0.70;0.30;;;23.90;1.70;;;;;;4909950;29;20469;-83
2022/07/17 09:59:02;;;;;;;0.77;0.30;;;25.50;1.00;;;;;;4908437;29;20423;-84
2022/07/17 10:01:27;;;;;;;0.43;0.20;;;26.10;1.00;;;;;;4907772;29;20423;-84
2022/07/17 10:03:53;;;;;;;1.83;0.77;;;24.60;1.00;;;;;;4909367;29;20419;-83
2022/07/17 10:06:20;;;;;;;1.03;0.20;;;23.00;1.00;;;;;;4909116;29;20183;-83
2022/07/17 10:08:46;;;;;;;0.97;0.20;;;22.20;1.00;;;;;;4907783;29;20533;-83
2022/07/17 10:11:15;;;;;;;1.90;0.37;;;23.80;1.00;;;;;;4909036;29;20488;-83
2022/07/17 10:13:42;;;;;;;3.53;0.30;;;25.10;1.00;;;;;;4908996;29;20178;-84
2022/07/17 10:16:08;;;;;;;1.00;0.30;;;26.00;1.00;;;;;;4907611;29;20434;-84
2022/07/17 10:18:45;;;;;;;0.70;0.20;;;26.60;1.00;;;;;;4909071;29;20781;-84
2022/07/17 10:21:21;;;;;;;1.70;0.20;;;26.20;1.00;;;;;;4917380;29;20439;-83
2022/07/17 10:23:52;;;;;;;1.13;0.30;;;26.30;1.00;;;;;;4909669;29;20817;-84
2022/07/17 10:26:38;;;;;;;0.87;0.20;;;24.40;1.00;;;;;;4908444;29;20471;-84
2022/07/17 10:29:24;;;;;;;2.07;0.47;;;25.60;1.00;;;;;;4908908;29;20904;-83
2022/07/17 10:31:52;;;;;;;0.50;0.20;;;26.00;1.00;;;;;;4911626;29;20487;-84
2022/07/17 10:34:17;;;;;;;1.70;0.30;;;26.40;1.00;;;;;;4908237;29;20467;-84
2022/07/17 10:36:44;;;;;;;1.33;0.40;;;26.20;1.00;;;;;;4907292;29;20537;-84
2022/07/17 10:39:20;;;;;;;0.77;0.20;;;26.50;1.00;;;;;;4913385;29;20222;-84
2022/07/17 10:41:57;;;;;;;1.10;0.30;;;27.00;1.00;;;;;;4905558;29;20485;-84
2022/07/17 10:44:31;;;;;;;0.53;0.20;;;27.00;1.00;;;;;;4906692;29;20426;-84
2022/07/17 10:46:58;;;;;;;0.40;0.20;;;26.70;1.00;;;;;;4908877;29;20453;-84
2022/07/17 10:49:24;;;;;;;2.20;0.20;;;26.10;1.00;;;;;;4908680;29;20416;-84
2022/07/17 10:51:52;;;;;;;1.10;0.30;;;26.70;1.00;;;;;;4908886;29;20434;-85
2022/07/17 10:54:20;;;;;;;0.70;0.20;;;27.10;1.00;;;;;;4908037;29;20415;-85
2022/07/17 10:56:46;;;;;;;0.60;0.20;;;26.60;1.00;;;;;;4906695;29;20427;-85
2022/07/17 10:59:12;;;;;;;0.60;0.20;;;26.60;1.00;;;;;;4907939;29;20406;-84
2022/07/17 11:01:41;;;;;;;1.57;0.27;;;26.80;1.00;;;;;;4907733;29;20508;-82
2022/07/17 11:04:12;;;;;;;0.97;0.20;;;27.20;1.00;;;;;;4906552;29;20881;-82
2022/07/17 11:06:38;;;;;;;1.33;0.50;;;27.50;1.00;;;;;;4908346;29;20419;-83
2022/07/17 11:09:10;;;;;;;0.63;0.20;;;27.70;1.00;;;;;;4907179;29;21590;-83
2022/07/17 11:11:40;;;;;;;1.00;0.30;;;28.10;1.00;;;;;;4908185;29;20288;-83
2022/07/17 11:14:23;;;;;;;0.93;0.20;;;27.70;1.00;;;;;;4907359;29;20907;-83
2022/07/17 11:16:54;;;;;;;1.10;0.20;;;28.10;1.00;;;;;;4910689;29;20783;-83
2022/07/17 11:19:25;;;;;;;1.20;0.20;;;28.20;1.00;;;;;;4917933;29;20510;-82
2022/07/17 11:21:51;;;;;;;0.80;0.20;;;27.90;1.00;;;;;;4918078;29;20482;-83
2022/07/17 11:24:17;;;;;;;0.40;0.20;;;27.80;1.00;;;;;;4918001;29;20422;-82
2022/07/17 11:26:50;;;;;;;0.80;0.23;;;28.30;1.00;;;;;;4918151;29;20475;-81
2022/07/17 11:29:16;;;;;;;1.83;0.20;;;28.20;1.00;;;;;;4917768;29;20186;-82
2022/07/17 11:31:42;;;;;;;0.70;0.30;;;28.40;1.00;;;;;;4917804;29;20989;-83
2022/07/17 11:34:11;;;;;;;1.10;0.27;;;28.60;1.00;;;;;;4917925;29;20418;-83
2022/07/17 11:36:39;;;;;;;0.70;0.20;;;27.70;1.00;;;;;;4918225;29;20434;-83
2022/07/17 11:39:13;;;;;;;0.40;0.20;;;26.00;1.00;;;;;;4918147;29;20427;-83
2022/07/17 11:41:52;;;;;;;0.53;0.20;;;26.70;1.00;;;;;;4930995;29;20996;-83
2022/07/17 11:44:19;;;;;;;0.83;0.30;;;27.00;1.00;;;;;;4917966;29;20418;-82
2022/07/17 11:46:47;;;;;;;2.10;0.30;;;28.20;1.00;;;;;;4917917;29;20426;-83
2022/07/17 11:49:25;;;;;;;0.63;0.20;;;28.90;1.00;;;;;;4916406;29;20971;-84
2022/07/17 11:51:51;;;;;;;1.60;0.20;;;28.40;1.00;;;;;;4917499;29;20434;-83
2022/07/17 11:54:17;;;;;;;1.30;0.20;;;27.90;1.00;;;;;;4909281;29;20515;-85
2022/07/17 11:56:51;;;;;;;0.70;0.20;;;27.80;1.00;;;;;;4905037;29;20270;-83
2022/07/17 11:59:25;;;;;;;0.63;0.20;;;27.40;1.00;;;;;;4905362;29;20648;-83
2022/07/17 12:01:50;;;;;;;0.70;0.40;;;27.70;1.00;;;;;;4906042;29;20427;-83
2022/07/17 12:04:16;;;;;;;1.20;0.40;;;27.20;1.00;;;;;;4907586;29;20466;-83
2022/07/17 12:06:41;;;;;;;0.50;0.20;;;26.80;1.00;;;;;;4913096;29;20174;-85
2022/07/17 12:09:07;;;;;;;1.23;0.30;;;27.40;1.00;;;;;;4906540;29;20234;-84
2022/07/17 12:11:44;;;;;;;0.40;0.20;;;27.80;1.00;;;;;;4910709;29;20219;-84
2022/07/17 12:14:10;;;;;;;0.50;0.20;;;27.70;1.00;;;;;;4900170;29;20265;-84
2022/07/17 12:16:36;;;;;;;2.30;0.87;;;28.30;1.00;;;;;;4908872;29;20525;-83
2022/07/17 12:19:14;;;;;;;1.17;0.20;;;27.90;1.00;;;;;;4917050;29;20181;-83
2022/07/17 12:21:55;;;;;;;1.37;0.30;;;27.20;1.00;;;;;;4916724;29;20513;-84
2022/07/17 12:24:25;;;;;;;1.93;0.30;;;27.40;1.00;;;;;;4916932;29;20437;-84
2022/07/17 12:26:51;;;;;;;1.50;0.23;;;27.90;1.00;;;;;;4916512;29;20525;-84
2022/07/17 12:29:17;;;;;;;0.73;0.30;;;28.10;1.00;;;;;;4916933;29;20434;-84
2022/07/17 12:31:43;;;;;;;1.90;0.47;;;28.40;1.00;;;;;;4916794;29;20474;-83
2022/07/17 12:34:08;;;;;;;2.97;0.30;;;27.90;1.00;;;;;;4931332;29;20636;-83
2022/07/17 12:36:37;;;;;;;0.80;0.40;;;27.90;1.00;;;;;;4915753;29;20201;-84
2022/07/17 12:39:03;;;;;;;0.80;0.20;;;28.30;1.00;;;;;;4916776;29;20198;-84
2022/07/17 12:41:29;;;;;;;0.80;0.23;;;28.60;1.00;;;;;;4916671;29;20970;-84
2022/07/17 12:43:54;;;;;;;0.90;0.20;;;28.30;1.00;;;;;;4916181;29;20182;-84
2022/07/17 12:46:20;;;;;;;1.27;0.30;;;28.60;1.00;;;;;;4916537;29;20186;-84
2022/07/17 12:48:47;;;;;;;1.27;0.30;;;28.30;1.00;;;;;;4916596;29;20170;-83